Time;durP1;ratioP1;P1;durP2;ratioP2;P2;SDS_P1;SDS_P2;PMS_P1;PMS_P2;Temp;Humidity;BMP_temperature;BMP_pressure;BME280_temperature;BME280_humidity;BME280_pressure;Samples;Min_cycle;Max_cycle;Signal;HPM_P1;HPM_P2
2024/02/05 00:03:29;;;;;;;7.90;2.30;;;;;;;;;;105193;1289;544903;-72
2024/02/05 00:07:07;;;;;;;5.80;1.90;;;;;;;;;;103912;1289;545658;-72
2024/02/05 00:10:45;;;;;;;6.50;1.70;;;;;;;;;;104666;1301;545671;-73
2024/02/05 00:14:21;;;;;;;6.50;2.40;;;;;;;;;;104609;1292;544721;-72
2024/02/05 00:17:59;;;;;;;5.00;1.70;;;;;;;;;;104839;1287;545530;-73
2024/02/05 00:21:37;;;;;;;5.10;1.90;;;;;;;;;;104377;1295;545045;-72
2024/02/05 00:25:14;;;;;;;5.60;1.90;;;;;;;;;;104102;1289;545229;-71
2024/02/05 00:28:52;;;;;;;5.00;1.60;;;;;;;;;;103838;1291;545296;-72
2024/02/05 00:32:37;;;;;;;7.20;2.40;;;;;;;;;;103592;1291;547761;-71
2024/02/05 00:36:07;;;;;;;9.70;2.90;;;;;;;;;;103779;1292;545001;-73
2024/02/05 00:39:44;;;;;;;5.70;2.30;;;;;;;;;;103798;1290;545839;-72
2024/02/05 00:43:22;;;;;;;6.10;2.10;;;;;;;;;;103818;1289;544963;-72
2024/02/05 00:46:59;;;;;;;6.60;2.70;;;;;;;;;;103743;1292;545184;-72
2024/02/05 00:50:38;;;;;;;7.40;3.30;;;;;;;;;;103727;1295;544976;-72
2024/02/05 00:54:12;;;;;;;4.40;1.50;;;;;;;;;;103642;1294;545693;-72
2024/02/05 00:57:52;;;;;;;2.40;0.60;;;;;;;;;;103682;1292;545398;-72
2024/02/05 01:01:30;;;;;;;1.30;0.40;;;;;;;;;;103859;1295;544908;-71
2024/02/05 01:05:07;;;;;;;0.90;0.30;;;;;;;;;;104103;1286;546252;-71
2024/02/05 01:08:40;;;;;;;0.40;0.20;;;;;;;;;;103842;1288;545043;-71
2024/02/05 01:12:21;;;;;;;0.90;0.30;;;;;;;;;;103501;1297;544889;-72
2024/02/05 01:16:04;;;;;;;1.50;0.40;;;;;;;;;;103782;1294;545361;-73
2024/02/05 01:19:36;;;;;;;0.80;0.30;;;;;;;;;;103679;1291;545115;-76
2024/02/05 01:23:14;;;;;;;1.30;0.50;;;;;;;;;;103747;1289;544827;-73
2024/02/05 01:26:57;;;;;;;2.60;0.40;;;;;;;;;;103566;1292;548169;-73
2024/02/05 01:30:29;;;;;;;1.00;0.40;;;;;;;;;;103801;1291;545059;-73
2024/02/05 01:34:12;;;;;;;1.10;0.40;;;;;;;;;;103622;1292;546286;-73
2024/02/05 01:37:44;;;;;;;0.50;0.40;;;;;;;;;;103799;1289;545398;-74
2024/02/05 01:41:21;;;;;;;2.60;0.50;;;;;;;;;;103974;1295;545440;-73
2024/02/05 01:44:59;;;;;;;1.60;0.40;;;;;;;;;;104308;1283;545007;-75
2024/02/05 01:48:37;;;;;;;1.70;0.40;;;;;;;;;;103616;1291;544932;-72
2024/02/05 01:52:16;;;;;;;2.10;0.50;;;;;;;;;;103855;1296;545188;-76
2024/02/05 01:55:51;;;;;;;0.90;0.30;;;;;;;;;;103733;1289;544989;-72
2024/02/05 01:59:29;;;;;;;1.80;0.40;;;;;;;;;;103714;1289;545707;-76
2024/02/05 02:03:07;;;;;;;0.90;0.40;;;;;;;;;;103685;1292;545633;-73
2024/02/05 02:06:43;;;;;;;0.70;0.30;;;;;;;;;;103798;1291;545762;-72
2024/02/05 02:10:21;;;;;;;1.30;0.40;;;;;;;;;;103711;1289;544964;-73
2024/02/05 02:13:58;;;;;;;0.90;0.40;;;;;;;;;;103731;1289;544947;-73
2024/02/05 02:17:38;;;;;;;1.10;0.40;;;;;;;;;;103776;1292;545142;-71
2024/02/05 02:21:14;;;;;;;2.00;0.40;;;;;;;;;;104152;1286;546105;-72
2024/02/05 02:24:57;;;;;;;0.60;0.30;;;;;;;;;;103623;1291;546156;-72
2024/02/05 02:28:24;;;;;;;0.60;0.30;;;;;;;;;;103810;1290;545037;-72
2024/02/05 02:32:24;;;;;;;2.40;0.30;;;;;;;;;;104365;1285;545043;-72
2024/02/05 02:35:59;;;;;;;1.00;0.40;;;;;;;;;;103750;1289;545005;-72
2024/02/05 02:39:23;;;;;;;0.40;0.30;;;;;;;;;;103766;1295;544935;-69
2024/02/05 02:43:02;;;;;;;0.70;0.30;;;;;;;;;;103684;1292;544814;-76
2024/02/05 02:46:36;;;;;;;0.50;0.30;;;;;;;;;;103811;1292;545181;-73
2024/02/05 02:50:19;;;;;;;0.80;0.30;;;;;;;;;;103635;1292;548166;-72
2024/02/05 02:53:50;;;;;;;1.10;0.40;;;;;;;;;;103791;1291;544718;-74
2024/02/05 02:57:29;;;;;;;1.50;0.40;;;;;;;;;;103813;1290;546000;-72
2024/02/05 03:01:06;;;;;;;0.40;0.30;;;;;;;;;;103708;1289;544872;-73
2024/02/05 03:04:43;;;;;;;0.80;0.30;;;;;;;;;;103809;1289;544815;-74
2024/02/05 03:08:21;;;;;;;1.20;0.30;;;;;;;;;;103707;1289;544912;-74
2024/02/05 03:12:01;;;;;;;0.80;0.30;;;;;;;;;;103760;1292;546909;-72
2024/02/05 03:15:32;;;;;;;0.90;0.30;;;;;;;;;;103738;1290;545163;-72
2024/02/05 03:19:13;;;;;;;1.00;0.40;;;;;;;;;;103815;1291;544869;-73
2024/02/05 03:22:51;;;;;;;0.60;0.30;;;;;;;;;;103799;1292;545450;-74
2024/02/05 03:26:33;;;;;;;0.40;0.30;;;;;;;;;;103579;1293;547854;-73
2024/02/05 03:30:06;;;;;;;0.60;0.30;;;;;;;;;;103746;1290;544975;-73
2024/02/05 03:33:43;;;;;;;0.50;0.30;;;;;;;;;;103762;1292;545406;-72
2024/02/05 03:37:20;;;;;;;1.10;0.30;;;;;;;;;;103715;1290;544964;-73
2024/02/05 03:40:53;;;;;;;1.70;0.40;;;;;;;;;;103778;1288;544977;-69
2024/02/05 03:44:35;;;;;;;1.50;0.50;;;;;;;;;;103848;1291;544909;-75
2024/02/05 03:48:12;;;;;;;1.00;0.30;;;;;;;;;;103936;1289;544854;-74
2024/02/05 03:51:56;;;;;;;1.00;0.30;;;;;;;;;;103747;1291;548104;-72
2024/02/05 03:55:23;;;;;;;0.40;0.30;;;;;;;;;;103944;1292;544932;-70
2024/02/05 03:59:05;;;;;;;1.30;0.30;;;;;;;;;;103791;1290;545532;-73
2024/02/05 04:02:43;;;;;;;1.20;0.30;;;;;;;;;;103746;1291;545066;-72
2024/02/05 04:06:20;;;;;;;1.00;0.30;;;;;;;;;;103751;1289;545596;-74
2024/02/05 04:09:57;;;;;;;0.30;0.20;;;;;;;;;;103660;1291;545434;-72
2024/02/05 04:13:35;;;;;;;0.80;0.40;;;;;;;;;;103781;1289;544818;-72
2024/02/05 04:17:18;;;;;;;1.20;0.30;;;;;;;;;;103524;1291;548179;-73
2024/02/05 04:20:56;;;;;;;1.10;0.30;;;;;;;;;;104275;1288;546440;-70
2024/02/05 04:24:27;;;;;;;1.50;0.30;;;;;;;;;;103658;1303;545736;-72
2024/02/05 04:28:05;;;;;;;0.40;0.20;;;;;;;;;;103830;1292;545461;-76
2024/02/05 04:31:42;;;;;;;0.40;0.20;;;;;;;;;;103986;1289;545000;-72
2024/02/05 04:35:20;;;;;;;0.90;0.30;;;;;;;;;;103866;1301;544944;-74
2024/02/05 04:38:57;;;;;;;0.30;0.20;;;;;;;;;;103807;1290;544889;-74
2024/02/05 04:42:35;;;;;;;1.10;0.30;;;;;;;;;;103710;1291;545046;-71
2024/02/05 04:46:12;;;;;;;0.60;0.40;;;;;;;;;;103733;1292;545004;-73
2024/02/05 04:49:50;;;;;;;0.90;0.30;;;;;;;;;;103753;1289;545006;-73
2024/02/05 04:53:27;;;;;;;0.80;0.40;;;;;;;;;;103484;1292;545453;-70
2024/02/05 04:57:04;;;;;;;0.70;0.30;;;;;;;;;;103804;1292;545454;-74
2024/02/05 05:00:42;;;;;;;0.60;0.30;;;;;;;;;;103724;1295;545179;-72
2024/02/05 05:04:19;;;;;;;0.70;0.30;;;;;;;;;;103803;1288;544941;-71
2024/02/05 05:07:57;;;;;;;1.30;0.40;;;;;;;;;;103681;1291;545033;-72
2024/02/05 05:11:35;;;;;;;0.70;0.30;;;;;;;;;;103736;1291;545243;-73
2024/02/05 05:15:15;;;;;;;0.50;0.30;;;;;;;;;;103725;1292;544949;-73
2024/02/05 05:18:49;;;;;;;1.20;0.30;;;;;;;;;;103780;1295;544870;-73
2024/02/05 05:22:26;;;;;;;0.60;0.30;;;;;;;;;;103835;1289;544841;-73
2024/02/05 05:26:05;;;;;;;1.00;0.30;;;;;;;;;;103749;1292;545008;-72
2024/02/05 05:29:41;;;;;;;0.50;0.30;;;;;;;;;;103969;1288;545405;-76
2024/02/05 05:33:24;;;;;;;0.70;0.30;;;;;;;;;;103961;1287;547986;-74
2024/02/05 05:36:57;;;;;;;0.80;0.40;;;;;;;;;;103755;1291;545172;-73
2024/02/05 05:40:34;;;;;;;0.60;0.40;;;;;;;;;;103748;1289;544739;-72
2024/02/05 05:44:11;;;;;;;1.30;0.40;;;;;;;;;;103724;1292;544773;-72
2024/02/05 05:47:45;;;;;;;0.60;0.30;;;;;;;;;;103825;1294;544935;-70
2024/02/05 05:51:26;;;;;;;1.10;0.40;;;;;;;;;;103748;1290;544880;-76
2024/02/05 05:55:06;;;;;;;1.20;0.40;;;;;;;;;;103725;1290;544797;-75
2024/02/05 05:58:41;;;;;;;0.90;0.30;;;;;;;;;;104094;1285;545183;-70
2024/02/05 06:02:18;;;;;;;0.60;0.40;;;;;;;;;;103906;1289;545494;-72
2024/02/05 06:05:57;;;;;;;0.90;0.30;;;;;;;;;;103716;1292;544911;-71
2024/02/05 06:09:29;;;;;;;2.10;0.60;;;;;;;;;;103683;1292;544928;-74
2024/02/05 06:13:11;;;;;;;6.60;2.40;;;;;;;;;;103766;1291;546147;-75
2024/02/05 06:16:48;;;;;;;3.40;1.00;;;;;;;;;;103862;1289;545594;-68
2024/02/05 06:20:25;;;;;;;3.90;1.60;;;;;;;;;;103744;1292;544959;-70
2024/02/05 06:24:03;;;;;;;4.60;2.70;;;;;;;;;;103766;1289;545825;-73
2024/02/05 06:27:37;;;;;;;0.70;0.40;;;;;;;;;;103700;1292;544787;-73
2024/02/05 06:31:18;;;;;;;0.80;0.40;;;;;;;;;;103779;1292;546278;-73
2024/02/05 06:34:55;;;;;;;1.10;0.50;;;;;;;;;;103795;1288;544772;-71
2024/02/05 06:38:33;;;;;;;1.20;0.40;;;;;;;;;;103748;1290;546243;-77
2024/02/05 06:42:10;;;;;;;0.70;0.40;;;;;;;;;;103511;1297;545458;-73
2024/02/05 06:45:53;;;;;;;0.60;0.40;;;;;;;;;;103672;1292;547946;-74
2024/02/05 06:49:25;;;;;;;1.10;0.40;;;;;;;;;;103721;1289;544917;-72
2024/02/05 06:53:02;;;;;;;1.00;0.40;;;;;;;;;;103691;1292;545385;-74
2024/02/05 06:56:40;;;;;;;0.80;0.40;;;;;;;;;;103757;1291;545009;-73
2024/02/05 07:00:18;;;;;;;0.90;0.40;;;;;;;;;;103794;1294;545628;-72
2024/02/05 07:03:55;;;;;;;1.30;0.50;;;;;;;;;;103741;1289;546163;-72
2024/02/05 07:07:33;;;;;;;0.90;0.40;;;;;;;;;;103942;1292;545002;-74
2024/02/05 07:11:09;;;;;;;3.10;1.40;;;;;;;;;;104227;1291;544912;-72
2024/02/05 07:14:47;;;;;;;1.50;0.60;;;;;;;;;;103749;1289;544789;-72
2024/02/05 07:18:25;;;;;;;2.10;0.50;;;;;;;;;;103886;1290;545341;-72
2024/02/05 07:22:04;;;;;;;2.90;0.50;;;;;;;;;;103825;1295;545072;-77
2024/02/05 07:25:40;;;;;;;1.80;0.50;;;;;;;;;;103786;1290;546016;-74
2024/02/05 07:29:17;;;;;;;2.40;0.60;;;;;;;;;;104111;1288;545901;-73
2024/02/05 07:32:55;;;;;;;1.20;0.40;;;;;;;;;;103852;1292;544710;-72
2024/02/05 07:36:32;;;;;;;1.40;0.50;;;;;;;;;;103870;1291;544839;-72
2024/02/05 07:40:10;;;;;;;0.90;0.40;;;;;;;;;;103734;1291;546042;-72
2024/02/05 07:43:47;;;;;;;1.70;0.50;;;;;;;;;;103773;1289;545263;-72
2024/02/05 07:47:25;;;;;;;0.70;0.50;;;;;;;;;;103784;1292;545829;-72
2024/02/05 07:51:05;;;;;;;1.50;0.60;;;;;;;;;;103842;1289;544912;-76
2024/02/05 07:54:37;;;;;;;0.70;0.40;;;;;;;;;;103850;1289;544766;-74
2024/02/05 07:58:18;;;;;;;2.10;0.50;;;;;;;;;;103903;1289;544926;-72
2024/02/05 08:01:55;;;;;;;3.40;1.00;;;;;;;;;;104281;1292;545449;-73
2024/02/05 08:05:32;;;;;;;5.30;1.70;;;;;;;;;;104308;1289;545105;-75
2024/02/05 08:09:10;;;;;;;2.20;0.70;;;;;;;;;;104868;1289;545418;-73
2024/02/05 08:12:47;;;;;;;2.70;0.70;;;;;;;;;;104633;1289;544908;-75
2024/02/05 08:16:24;;;;;;;3.50;0.70;;;;;;;;;;105033;1288;544765;-72
2024/02/05 08:20:03;;;;;;;3.30;0.70;;;;;;;;;;104082;1288;545473;-73
2024/02/05 08:23:39;;;;;;;1.20;0.50;;;;;;;;;;104108;1294;545059;-71
2024/02/05 08:27:16;;;;;;;1.20;0.60;;;;;;;;;;104086;1289;545619;-71
2024/02/05 08:30:56;;;;;;;0.90;0.50;;;;;;;;;;103775;1288;544864;-71
2024/02/05 08:34:32;;;;;;;2.00;0.50;;;;;;;;;;103765;1292;544925;-72
2024/02/05 08:38:08;;;;;;;2.10;0.50;;;;;;;;;;103879;1289;544803;-75
2024/02/05 08:41:47;;;;;;;1.80;0.50;;;;;;;;;;103697;1290;545099;-71
2024/02/05 08:45:24;;;;;;;1.60;0.50;;;;;;;;;;103452;1295;545688;-73
2024/02/05 08:49:07;;;;;;;2.50;0.60;;;;;;;;;;103561;1292;547954;-76
2024/02/05 08:52:39;;;;;;;1.20;0.40;;;;;;;;;;103676;1290;545700;-71
2024/02/05 08:56:17;;;;;;;2.10;0.50;;;;;;;;;;103783;1290;544947;-72
2024/02/05 08:59:54;;;;;;;1.90;0.60;;;;;;;;;;103844;1289;545115;-75
2024/02/05 09:03:32;;;;;;;5.50;1.30;;;;;;;;;;104127;1286;545127;-73
2024/02/05 09:07:09;;;;;;;3.80;2.00;;;;;;;;;;103726;1292;544977;-72
2024/02/05 09:10:47;;;;;;;1.70;0.60;;;;;;;;;;103834;1289;545245;-74
2024/02/05 09:14:29;;;;;;;1.30;0.40;;;;;;;;;;103499;1292;548312;-72
2024/02/05 09:18:24;;;;;;;3.30;0.70;;;;;;;;;;103713;1289;548090;-72
2024/02/05 09:21:39;;;;;;;1.40;0.60;;;;;;;;;;103657;1291;545260;-76
2024/02/05 09:25:17;;;;;;;3.20;0.80;;;;;;;;;;103902;1290;544797;-72
2024/02/05 09:28:54;;;;;;;2.30;0.70;;;;;;;;;;103769;1289;544935;-73
2024/02/05 09:32:33;;;;;;;1.70;0.70;;;;;;;;;;103770;1292;545963;-71
2024/02/05 09:36:10;;;;;;;2.80;0.70;;;;;;;;;;103984;1292;545604;-72
2024/02/05 09:39:52;;;;;;;2.20;0.80;;;;;;;;;;103595;1291;548150;-68
2024/02/05 09:43:32;;;;;;;2.40;0.80;;;;;;;;;;103597;1292;548082;-71
2024/02/05 09:47:02;;;;;;;1.80;0.70;;;;;;;;;;103758;1289;545012;-74
2024/02/05 09:50:39;;;;;;;3.00;0.90;;;;;;;;;;103829;1292;545002;-77
2024/02/05 09:54:32;;;;;;;4.30;1.30;;;;;;;;;;103795;1292;547854;-72
2024/02/05 09:57:54;;;;;;;4.90;1.80;;;;;;;;;;103739;1300;545084;-72
2024/02/05 10:01:32;;;;;;;4.80;1.20;;;;;;;;;;103777;1292;545380;-72
2024/02/05 10:05:14;;;;;;;4.20;0.90;;;;;;;;;;103734;1291;545338;-73
2024/02/05 10:08:53;;;;;;;3.80;1.10;;;;;;;;;;103728;1303;544834;-74
2024/02/05 10:12:24;;;;;;;5.40;1.30;;;;;;;;;;103691;1291;544972;-72
2024/02/05 10:16:01;;;;;;;4.50;1.20;;;;;;;;;;103798;1292;545040;-73
2024/02/05 10:19:38;;;;;;;4.10;1.30;;;;;;;;;;104200;1298;545216;-73
2024/02/05 10:23:16;;;;;;;6.60;1.30;;;;;;;;;;103835;1292;545648;-71
2024/02/05 10:26:54;;;;;;;7.60;1.40;;;;;;;;;;103746;1291;545028;-73
2024/02/05 10:30:32;;;;;;;5.50;1.10;;;;;;;;;;103655;1291;545417;-73
2024/02/05 10:34:12;;;;;;;7.50;1.70;;;;;;;;;;104322;1286;545558;-75
2024/02/05 10:37:46;;;;;;;7.10;1.80;;;;;;;;;;103795;1291;544892;-72
2024/02/05 10:41:23;;;;;;;4.80;1.40;;;;;;;;;;103904;1292;545321;-76
2024/02/05 10:45:05;;;;;;;6.00;1.50;;;;;;;;;;103804;1292;544792;-74
2024/02/05 10:48:38;;;;;;;6.90;1.50;;;;;;;;;;104070;1287;545727;-75
2024/02/05 10:52:13;;;;;;;5.80;1.60;;;;;;;;;;103796;1292;545813;-75
2024/02/05 10:55:55;;;;;;;5.90;1.80;;;;;;;;;;103790;1291;544972;-72
2024/02/05 10:59:31;;;;;;;6.30;1.90;;;;;;;;;;103656;1291;545450;-73
2024/02/05 11:03:14;;;;;;;10.20;3.10;;;;;;;;;;103615;1292;545125;-73
2024/02/05 11:06:47;;;;;;;6.50;1.80;;;;;;;;;;103825;1292;545754;-76
2024/02/05 11:10:25;;;;;;;6.70;1.60;;;;;;;;;;103691;1291;544996;-72
2024/02/05 11:13:58;;;;;;;8.60;2.00;;;;;;;;;;103930;1288;546333;-73
2024/02/05 11:17:38;;;;;;;9.40;2.30;;;;;;;;;;103695;1292;544689;-74
2024/02/05 11:21:18;;;;;;;9.50;2.90;;;;;;;;;;103637;1295;544873;-73
2024/02/05 11:24:52;;;;;;;9.50;2.70;;;;;;;;;;103736;1292;544814;-73
2024/02/05 11:28:30;;;;;;;7.30;2.00;;;;;;;;;;103733;1292;545402;-73
2024/02/05 11:32:08;;;;;;;11.20;2.90;;;;;;;;;;103737;1302;544765;-72
2024/02/05 11:35:48;;;;;;;9.60;2.70;;;;;;;;;;103814;1291;545189;-74
2024/02/05 11:39:22;;;;;;;11.80;2.80;;;;;;;;;;103755;1291;545085;-72
2024/02/05 11:43:01;;;;;;;9.90;2.50;;;;;;;;;;103753;1290;545992;-73
2024/02/05 11:46:37;;;;;;;9.90;2.60;;;;;;;;;;103686;1295;545190;-69
2024/02/05 11:50:11;;;;;;;10.60;3.40;;;;;;;;;;103790;1288;545375;-74
2024/02/05 11:53:53;;;;;;;11.40;3.20;;;;;;;;;;103845;1291;545424;-74
2024/02/05 11:57:30;;;;;;;12.70;3.50;;;;;;;;;;103827;1289;544825;-74
2024/02/05 12:01:11;;;;;;;10.90;3.40;;;;;;;;;;103602;1292;544779;-71
2024/02/05 12:04:51;;;;;;;14.40;5.30;;;;;;;;;;104441;1283;547750;-73
2024/02/05 12:08:22;;;;;;;15.70;4.90;;;;;;;;;;103626;1291;545439;-72
2024/02/05 12:12:00;;;;;;;13.20;3.30;;;;;;;;;;103827;1291;544992;-71
2024/02/05 12:15:39;;;;;;;14.90;5.10;;;;;;;;;;103623;1291;544871;-71
2024/02/05 12:19:25;;;;;;;13.10;3.20;;;;;;;;;;103738;1291;545286;-72
2024/02/05 12:22:53;;;;;;;13.50;3.50;;;;;;;;;;103810;1288;545267;-73
2024/02/05 12:26:30;;;;;;;13.90;4.00;;;;;;;;;;103704;1291;544826;-72
2024/02/05 12:30:05;;;;;;;13.50;3.80;;;;;;;;;;103701;1292;544796;-73
2024/02/05 12:33:48;;;;;;;16.10;3.80;;;;;;;;;;103733;1291;545342;-73
2024/02/05 12:37:22;;;;;;;16.00;4.10;;;;;;;;;;103885;1292;544818;-75
2024/02/05 12:41:00;;;;;;;15.30;4.30;;;;;;;;;;103978;1291;545380;-72
2024/02/05 12:44:37;;;;;;;14.40;4.40;;;;;;;;;;103808;1292;545128;-72
2024/02/05 12:48:11;;;;;;;15.90;3.60;;;;;;;;;;103774;1289;544800;-73
2024/02/05 12:51:53;;;;;;;16.30;4.30;;;;;;;;;;103612;1291;544783;-73
2024/02/05 12:55:31;;;;;;;13.90;4.00;;;;;;;;;;103713;1292;544994;-72
2024/02/05 12:59:07;;;;;;;13.30;4.00;;;;;;;;;;103724;1289;545144;-72
2024/02/05 13:02:45;;;;;;;13.80;4.10;;;;;;;;;;103791;1289;544933;-72
2024/02/05 13:06:22;;;;;;;15.90;4.60;;;;;;;;;;103619;1292;544780;-75
2024/02/05 13:10:00;;;;;;;13.40;4.20;;;;;;;;;;103762;1292;544813;-72
2024/02/05 13:13:36;;;;;;;16.50;4.70;;;;;;;;;;103685;1292;544966;-73
2024/02/05 13:17:11;;;;;;;17.20;4.30;;;;;;;;;;103807;1293;545937;-75
2024/02/05 13:20:52;;;;;;;12.40;3.90;;;;;;;;;;103719;1291;545448;-73
2024/02/05 13:24:29;;;;;;;16.20;4.60;;;;;;;;;;103774;1292;544784;-71
2024/02/05 13:28:03;;;;;;;16.40;4.70;;;;;;;;;;104012;1289;545584;-74
2024/02/05 13:31:44;;;;;;;14.70;5.20;;;;;;;;;;103781;1291;545480;-73
2024/02/05 13:35:21;;;;;;;14.40;4.50;;;;;;;;;;104146;1289;544949;-72
2024/02/05 13:39:00;;;;;;;14.40;4.80;;;;;;;;;;103901;1289;546543;-73
2024/02/05 13:42:41;;;;;;;12.70;4.50;;;;;;;;;;103669;1302;544972;-73
2024/02/05 13:46:14;;;;;;;13.70;4.10;;;;;;;;;;103879;1292;544979;-73
2024/02/05 13:49:51;;;;;;;13.30;4.10;;;;;;;;;;103662;1294;545485;-71
2024/02/05 13:53:29;;;;;;;18.10;5.00;;;;;;;;;;103725;1292;545195;-72
2024/02/05 13:57:06;;;;;;;14.00;4.00;;;;;;;;;;104123;1288;545535;-75
2024/02/05 14:00:42;;;;;;;18.20;4.30;;;;;;;;;;103935;1288;545394;-71
2024/02/05 14:04:22;;;;;;;18.00;5.20;;;;;;;;;;103759;1291;544945;-72
2024/02/05 14:07:59;;;;;;;14.70;4.20;;;;;;;;;;104002;1289;546093;-72
2024/02/05 14:11:32;;;;;;;15.30;4.50;;;;;;;;;;103984;1289;545115;-71
2024/02/05 14:15:14;;;;;;;21.30;5.90;;;;;;;;;;103888;1292;544914;-72
2024/02/05 14:18:50;;;;;;;20.20;5.40;;;;;;;;;;103825;1292;544872;-73
2024/02/05 14:22:29;;;;;;;22.70;6.80;;;;;;;;;;103775;1291;544836;-75
2024/02/05 14:26:06;;;;;;;17.50;5.40;;;;;;;;;;103601;1295;545880;-72
2024/02/05 14:29:45;;;;;;;19.90;5.90;;;;;;;;;;104469;1285;544829;-74
2024/02/05 14:33:20;;;;;;;20.60;5.60;;;;;;;;;;103779;1292;545257;-73
2024/02/05 14:36:54;;;;;;;19.00;6.70;;;;;;;;;;104121;1289;544860;-72
2024/02/05 14:40:36;;;;;;;22.60;6.70;;;;;;;;;;103689;1292;544917;-77
2024/02/05 14:44:10;;;;;;;21.00;7.00;;;;;;;;;;103808;1289;545121;-74
2024/02/05 14:47:51;;;;;;;23.40;7.20;;;;;;;;;;103724;1292;545203;-74
2024/02/05 14:51:31;;;;;;;18.10;7.80;;;;;;;;;;105353;1282;544820;-74
2024/02/05 14:55:06;;;;;;;17.30;6.30;;;;;;;;;;104448;1291;545039;-73
2024/02/05 14:58:43;;;;;;;19.40;6.70;;;;;;;;;;104194;1292;544827;-70
2024/02/05 15:02:28;;;;;;;19.90;5.60;;;;;;;;;;104253;1289;548111;-74
2024/02/05 15:05:58;;;;;;;17.60;4.70;;;;;;;;;;104558;1292;546499;-73
2024/02/05 15:09:36;;;;;;;14.90;4.90;;;;;;;;;;103938;1291;545472;-72
2024/02/05 15:13:13;;;;;;;15.00;4.70;;;;;;;;;;103674;1295;544950;-74
2024/02/05 15:16:52;;;;;;;15.50;4.20;;;;;;;;;;103794;1292;544972;-73
2024/02/05 15:20:24;;;;;;;14.60;4.40;;;;;;;;;;103940;1288;545732;-72
2024/02/05 15:24:06;;;;;;;18.00;5.20;;;;;;;;;;103741;1291;544998;-69
2024/02/05 15:27:39;;;;;;;16.40;4.20;;;;;;;;;;104153;1286;545870;-72
2024/02/05 15:31:21;;;;;;;17.30;4.60;;;;;;;;;;103775;1291;545023;-75
2024/02/05 15:35:00;;;;;;;17.70;4.90;;;;;;;;;;103890;1295;545483;-73
2024/02/05 15:38:35;;;;;;;15.90;4.40;;;;;;;;;;103904;1289;545342;-74
2024/02/05 15:42:09;;;;;;;16.70;4.90;;;;;;;;;;103831;1289;545048;-71
2024/02/05 15:45:51;;;;;;;19.50;5.90;;;;;;;;;;103714;1295;545639;-72
2024/02/05 15:49:28;;;;;;;19.30;6.10;;;;;;;;;;103691;1292;545847;-72
2024/02/05 15:53:05;;;;;;;15.80;5.30;;;;;;;;;;103949;1289;544931;-73
2024/02/05 15:56:43;;;;;;;23.20;5.50;;;;;;;;;;103698;1295;544903;-73
2024/02/05 16:00:17;;;;;;;20.80;8.20;;;;;;;;;;103741;1294;545328;-72
2024/02/05 16:03:58;;;;;;;17.60;4.50;;;;;;;;;;103699;1292;544956;-72
2024/02/05 16:07:35;;;;;;;16.90;4.50;;;;;;;;;;103561;1305;544933;-73
2024/02/05 16:11:09;;;;;;;16.90;4.80;;;;;;;;;;103752;1290;544999;-73
2024/02/05 16:14:50;;;;;;;12.90;3.80;;;;;;;;;;103695;1292;545169;-72
2024/02/05 16:18:24;;;;;;;15.70;5.70;;;;;;;;;;103815;1288;544995;-74
2024/02/05 16:22:05;;;;;;;14.90;4.30;;;;;;;;;;103844;1292;544947;-73
2024/02/05 16:25:42;;;;;;;19.30;6.40;;;;;;;;;;103689;1289;545542;-74
2024/02/05 16:29:20;;;;;;;36.20;14.40;;;;;;;;;;103576;1291;545035;-73
2024/02/05 16:32:59;;;;;;;42.80;20.90;;;;;;;;;;103955;1289;544867;-73
2024/02/05 16:36:54;;;;;;;27.90;11.40;;;;;;;;;;103840;1289;548087;-72
2024/02/05 16:40:09;;;;;;;21.00;8.10;;;;;;;;;;103950;1288;545649;-72
2024/02/05 16:43:50;;;;;;;19.10;7.40;;;;;;;;;;103612;1291;544788;-74
2024/02/05 16:47:27;;;;;;;19.10;6.40;;;;;;;;;;104124;1292;545737;-72
2024/02/05 16:51:05;;;;;;;18.10;5.90;;;;;;;;;;103718;1289;544992;-73
2024/02/05 16:54:42;;;;;;;16.70;4.80;;;;;;;;;;103881;1295;544987;-73
2024/02/05 16:58:20;;;;;;;17.00;5.30;;;;;;;;;;103755;1292;545316;-73
2024/02/05 17:01:57;;;;;;;16.50;5.00;;;;;;;;;;103780;1289;545320;-73
2024/02/05 17:05:40;;;;;;;14.70;4.90;;;;;;;;;;103605;1292;548557;-73
2024/02/05 17:09:18;;;;;;;13.80;4.80;;;;;;;;;;103565;1294;547906;-73
2024/02/05 17:12:46;;;;;;;15.60;6.00;;;;;;;;;;103900;1294;544972;-72
2024/02/05 17:16:28;;;;;;;14.50;5.20;;;;;;;;;;103863;1289;544991;-73
2024/02/05 17:20:07;;;;;;;16.90;5.90;;;;;;;;;;103852;1289;547888;-73
2024/02/05 17:23:43;;;;;;;17.70;5.40;;;;;;;;;;103804;1292;544777;-74
2024/02/05 17:27:22;;;;;;;17.00;6.20;;;;;;;;;;103699;1292;545012;-73
2024/02/05 17:30:57;;;;;;;25.70;8.90;;;;;;;;;;103806;1292;544976;-73
2024/02/05 17:34:34;;;;;;;16.40;5.70;;;;;;;;;;103749;1293;545516;-72
2024/02/05 17:38:09;;;;;;;14.00;4.10;;;;;;;;;;103829;1294;545619;-70
2024/02/05 17:41:49;;;;;;;15.00;4.20;;;;;;;;;;103794;1292;544829;-73
2024/02/05 17:45:27;;;;;;;11.60;4.70;;;;;;;;;;103893;1289;545511;-73
2024/02/05 17:49:00;;;;;;;15.50;4.60;;;;;;;;;;103990;1292;545521;-71
2024/02/05 17:52:49;;;;;;;15.50;5.80;;;;;;;;;;103654;1292;547765;-72
2024/02/05 17:56:19;;;;;;;13.10;4.70;;;;;;;;;;103832;1289;546015;-73
2024/02/05 18:00:03;;;;;;;15.00;4.70;;;;;;;;;;103346;1298;545608;-73
2024/02/05 18:03:34;;;;;;;15.60;4.70;;;;;;;;;;103742;1292;544965;-74
2024/02/05 18:07:12;;;;;;;14.60;4.10;;;;;;;;;;103710;1295;545610;-75
2024/02/05 18:10:55;;;;;;;11.70;3.70;;;;;;;;;;103584;1292;547802;-72
2024/02/05 18:14:27;;;;;;;13.90;4.50;;;;;;;;;;103734;1301;545785;-72
2024/02/05 18:18:04;;;;;;;14.40;4.40;;;;;;;;;;103757;1295;544874;-75
2024/02/05 18:21:41;;;;;;;12.20;4.20;;;;;;;;;;103808;1291;544945;-72
2024/02/05 18:25:18;;;;;;;17.50;7.00;;;;;;;;;;103811;1291;545805;-72
2024/02/05 18:28:57;;;;;;;20.40;8.10;;;;;;;;;;103786;1292;545089;-73
2024/02/05 18:32:34;;;;;;;11.40;4.20;;;;;;;;;;104691;1281;544813;-74
2024/02/05 18:36:11;;;;;;;12.80;6.80;;;;;;;;;;103714;1291;544768;-73
2024/02/05 18:39:45;;;;;;;23.80;7.40;;;;;;;;;;104135;1289;544691;-70
2024/02/05 18:43:27;;;;;;;17.50;6.40;;;;;;;;;;103897;1292;545034;-72
2024/02/05 18:47:04;;;;;;;13.10;5.20;;;;;;;;;;103760;1290;544915;-72
2024/02/05 18:50:41;;;;;;;11.50;5.20;;;;;;;;;;103910;1289;545537;-72
2024/02/05 18:54:20;;;;;;;20.50;7.90;;;;;;;;;;103768;1291;545054;-71
2024/02/05 18:57:56;;;;;;;13.60;4.90;;;;;;;;;;103862;1289;545712;-71
2024/02/05 19:01:33;;;;;;;14.00;5.00;;;;;;;;;;103867;1292;544750;-74
2024/02/05 19:05:11;;;;;;;21.50;10.00;;;;;;;;;;103865;1292;545281;-73
2024/02/05 19:08:48;;;;;;;18.30;7.80;;;;;;;;;;103718;1292;545196;-72
2024/02/05 19:12:26;;;;;;;31.10;19.20;;;;;;;;;;103725;1292;544878;-74
2024/02/05 19:16:05;;;;;;;20.30;8.50;;;;;;;;;;103796;1293;545052;-72
2024/02/05 19:19:46;;;;;;;20.30;9.20;;;;;;;;;;103601;1295;545996;-72
2024/02/05 19:23:18;;;;;;;16.80;7.10;;;;;;;;;;103847;1289;545268;-73
2024/02/05 19:26:58;;;;;;;13.90;4.20;;;;;;;;;;103766;1291;545133;-72
2024/02/05 19:30:35;;;;;;;19.20;9.40;;;;;;;;;;103868;1303;545624;-73
2024/02/05 19:34:07;;;;;;;18.10;7.90;;;;;;;;;;103792;1293;545329;-71
2024/02/05 19:37:44;;;;;;;18.70;9.30;;;;;;;;;;104018;1289;544847;-70
2024/02/05 19:41:22;;;;;;;12.00;4.30;;;;;;;;;;104253;1289;545416;-71
2024/02/05 19:45:03;;;;;;;9.60;3.80;;;;;;;;;;103795;1289;544776;-74
2024/02/05 19:48:42;;;;;;;11.00;3.40;;;;;;;;;;103797;1291;545002;-75
2024/02/05 19:52:38;;;;;;;10.60;2.60;;;;;;;;;;103741;1292;548269;-71
2024/02/05 19:55:52;;;;;;;10.60;2.90;;;;;;;;;;104421;1282;544914;-70
2024/02/05 19:59:32;;;;;;;11.20;3.30;;;;;;;;;;103783;1290;545114;-72
2024/02/05 20:03:11;;;;;;;8.00;3.10;;;;;;;;;;103784;1288;544921;-71
2024/02/05 20:07:09;;;;;;;12.10;3.40;;;;;;;;;;103678;1294;547982;-73
2024/02/05 20:10:26;;;;;;;12.20;4.00;;;;;;;;;;103640;1297;545749;-72
2024/02/05 20:14:04;;;;;;;10.80;3.20;;;;;;;;;;103922;1292;544796;-72
2024/02/05 20:17:40;;;;;;;11.80;3.40;;;;;;;;;;103585;1294;545495;-72
2024/02/05 20:21:18;;;;;;;11.50;3.70;;;;;;;;;;104022;1288;545294;-75
2024/02/05 20:24:55;;;;;;;11.40;3.70;;;;;;;;;;103707;1291;545901;-73
2024/02/05 20:28:32;;;;;;;9.90;2.80;;;;;;;;;;103761;1291;545394;-74
2024/02/05 20:32:11;;;;;;;12.00;3.30;;;;;;;;;;103583;1298;544596;-72
2024/02/05 20:35:43;;;;;;;11.50;3.00;;;;;;;;;;103878;1289;544717;-73
2024/02/05 20:39:27;;;;;;;11.80;3.40;;;;;;;;;;103674;1293;545849;-73
2024/02/05 20:42:58;;;;;;;11.80;3.70;;;;;;;;;;103871;1289;546441;-71
2024/02/05 20:46:46;;;;;;;10.80;3.80;;;;;;;;;;103540;1291;549130;-74
2024/02/05 20:50:21;;;;;;;8.90;2.90;;;;;;;;;;103729;1294;544864;-74
2024/02/05 20:53:55;;;;;;;10.90;3.10;;;;;;;;;;104616;1286;545357;-72
2024/02/05 20:57:29;;;;;;;10.80;3.50;;;;;;;;;;103783;1288;545020;-73